メインページ
METAR-TAF:

METAR-TAF

空港 :

ゴアベイ, オンタリオ州, カナダ

緯度: 45-53N, 経度: 082-34W, 海抜: 193m

現時点の気象観測

当レポートは49分前の08:00(UTC)に作成
の風 8kt
気温 3°C
湿度 93%
気圧 1014 hPa
視程: 14.5km
高度1300ftの千切れ雲あり
高度2300ftの曇り
小雨

METAR: CYZE 250800Z AUTO 18008KT 9SM -RA BKN013 OVC023 03/02 A2995 RMK SLP154

時間: 03:49 (08:49 UTC)

予報

当レポートは13時間11分前の19:38(UTC)に作成
予報は24日の 20時(UTC)から 24日の 23時(UTC)まで有効
東/南東の風 12kt
視程: 10km
高度1500ftの曇り
小雪
24日の 20時(UTC)から 24日の 22時(UTC)まで一時的に
視程: 10km
高度2500ftの曇り
24日の 2200時(UTC)から
東/南東の風 12kt
視程: 10km
高度1200ftの曇り
小雪
24日の 22時(UTC)から 24日の 23時(UTC)まで一時的に
視程: 3.2km
高度800ftの千切れ雲あり
高度1200ftの曇り
小雪

TAF: CYZE 241938Z 2420/2423 11012KT P6SM -SN OVC015 TEMPO 2420/2422 P6SM NSW OVC025 FM242200 11012KT P6SM -SN OVC012 TEMPO 2422/2423 2SM -SN BKN008 OVC012 RMK FCST BASED ON AUTO OBS. NXT FCST WILL BE ISSUED AT 251045Z

4,000以上の空港の気象観測と天気予報(METAR報とTAF報)

利用可能な観測所は地図上に黄色い丸と赤い丸で示す。

丸の上にカーソルを重ねると観測所名を参照できる。

次にクリックすると気象観測と天気予報を参照できる。

マップの切り替え:黒色「×」印の緑ボタンをクリックして拡大、「-」印の緑ボタンをクリックして縮小、緑色の三角印をクリックして隣りの地図に切り替え


METAR-TAF: